createdAt,value
2022-11-10T00:04:35.874Z,0
2022-11-10T00:09:35.816Z,0
2022-11-10T00:14:35.840Z,0
2022-11-10T00:19:35.819Z,0
2022-11-10T00:24:35.809Z,0
2022-11-10T00:29:35.837Z,0
2022-11-10T00:34:35.826Z,0
2022-11-10T00:39:35.842Z,0
2022-11-10T00:44:35.816Z,0
2022-11-10T00:49:35.783Z,0
2022-11-10T00:54:35.809Z,0
2022-11-10T00:59:35.848Z,0
2022-11-10T01:04:35.804Z,0
2022-11-10T01:09:35.815Z,0
2022-11-10T01:14:35.781Z,0
2022-11-10T01:19:35.824Z,0
2022-11-10T01:24:35.798Z,0
2022-11-10T01:29:35.786Z,0
2022-11-10T01:34:35.814Z,0
2022-11-10T01:39:35.832Z,0
2022-11-10T01:44:35.800Z,0
2022-11-10T01:49:35.817Z,0
2022-11-10T01:54:35.773Z,0
2022-11-10T01:59:35.752Z,0
2022-11-10T02:04:35.816Z,0
2022-11-10T02:09:35.787Z,0
2022-11-10T02:14:35.793Z,0
2022-11-10T02:19:35.802Z,0
2022-11-10T02:24:35.803Z,0
2022-11-10T02:29:35.755Z,0
2022-11-10T02:34:35.799Z,0
2022-11-10T02:39:35.788Z,0
2022-11-10T02:44:35.785Z,0
2022-11-10T02:49:35.799Z,0
2022-11-10T02:54:35.762Z,0
2022-11-10T02:59:35.818Z,0
2022-11-10T03:04:35.755Z,0
2022-11-10T03:09:35.753Z,0
2022-11-10T03:14:35.741Z,0
2022-11-10T03:19:35.797Z,0
2022-11-10T03:24:35.787Z,0
2022-11-10T03:29:35.781Z,0
2022-11-10T03:34:35.790Z,0
2022-11-10T03:39:35.796Z,0
2022-11-10T03:44:35.769Z,0
2022-11-10T03:49:35.742Z,0
2022-11-10T03:54:35.756Z,0
2022-11-10T03:59:35.752Z,0
2022-11-10T04:04:35.788Z,0
2022-11-10T04:09:35.799Z,0
2022-11-10T04:14:35.743Z,0
2022-11-10T04:19:35.761Z,0
2022-11-10T04:24:35.740Z,0
2022-11-10T04:29:35.746Z,0
2022-11-10T04:34:35.763Z,0
2022-11-10T04:39:35.761Z,0
2022-11-10T04:44:35.736Z,0
2022-11-10T04:49:35.732Z,0
2022-11-10T04:54:35.681Z,0
2022-11-10T04:59:35.778Z,0
2022-11-10T05:04:35.742Z,0
2022-11-10T05:09:35.750Z,0
2022-11-10T05:14:35.738Z,0
2022-11-10T05:19:35.755Z,0
2022-11-10T05:24:35.742Z,0
2022-11-10T05:29:35.764Z,0
2022-11-10T05:34:35.745Z,0
2022-11-10T05:39:35.790Z,0
2022-11-10T05:44:35.753Z,0
2022-11-10T05:49:35.741Z,0
2022-11-10T05:54:35.735Z,0
2022-11-10T05:59:35.755Z,0
2022-11-10T06:04:35.746Z,0
2022-11-10T06:09:35.735Z,0
2022-11-10T06:14:35.715Z,0
2022-11-10T06:19:35.743Z,0
2022-11-10T06:24:35.734Z,0
2022-11-10T06:29:35.728Z,0
2022-11-10T06:34:35.691Z,0
2022-11-10T06:39:35.716Z,0
2022-11-10T06:44:35.739Z,0
2022-11-10T06:49:35.716Z,0
2022-11-10T06:54:35.716Z,4
2022-11-10T06:59:36.263Z,7
2022-11-10T07:04:36.230Z,10
2022-11-10T07:09:36.224Z,11
2022-11-10T07:14:36.245Z,8
2022-11-10T07:19:36.285Z,13
2022-11-10T07:24:36.259Z,14
2022-11-10T07:29:36.259Z,17
2022-11-10T07:34:36.240Z,9
2022-11-10T07:39:36.253Z,16
2022-11-10T07:44:36.261Z,17
2022-11-10T07:49:36.252Z,16
2022-11-10T07:54:36.258Z,25
2022-11-10T07:59:36.253Z,86
2022-11-10T08:04:36.219Z,137
2022-11-10T08:09:36.257Z,93
2022-11-10T08:14:36.269Z,137
2022-11-10T08:19:36.273Z,58
2022-11-10T08:24:36.224Z,44
2022-11-10T08:29:36.257Z,42
2022-11-10T08:34:36.210Z,49
2022-11-10T08:39:38.432Z,102
2022-11-10T08:44:36.227Z,202
2022-11-10T08:49:36.240Z,197
2022-11-10T08:54:36.210Z,324
2022-11-10T08:59:36.242Z,374
2022-11-10T09:04:36.277Z,380
2022-11-10T09:09:36.227Z,125
2022-11-10T09:14:36.227Z,383
2022-11-10T09:19:36.265Z,157
2022-11-10T09:24:36.241Z,216
2022-11-10T09:29:36.246Z,257
2022-11-10T09:34:36.210Z,161
2022-11-10T09:39:36.237Z,151
2022-11-10T09:44:36.219Z,102
2022-11-10T09:49:36.231Z,143
2022-11-10T09:54:36.199Z,307
2022-11-10T09:59:36.224Z,264
2022-11-10T10:04:36.229Z,352
2022-11-10T10:09:36.205Z,359
2022-11-10T10:14:36.228Z,430
2022-11-10T10:19:36.253Z,380
2022-11-10T10:24:36.232Z,244
2022-11-10T10:29:37.555Z,393
2022-11-10T10:34:36.220Z,386
2022-11-10T10:39:36.224Z,383
2022-11-10T10:44:36.237Z,384
2022-11-10T10:49:36.206Z,329
2022-11-10T10:54:36.199Z,412
2022-11-10T10:59:36.227Z,442
2022-11-10T11:04:36.221Z,413
2022-11-10T11:09:36.203Z,455
2022-11-10T11:14:36.199Z,467
2022-11-10T11:19:36.303Z,318
2022-11-10T11:24:36.228Z,570
2022-11-10T11:29:36.231Z,164
2022-11-10T11:34:36.190Z,178
2022-11-10T11:39:36.235Z,479
2022-11-10T11:44:36.189Z,190
2022-11-10T11:49:36.214Z,492
2022-11-10T11:54:36.185Z,223
2022-11-10T11:59:36.233Z,145
2022-11-10T12:04:36.244Z,444
2022-11-10T12:09:36.212Z,315
2022-11-10T12:14:36.199Z,500
2022-11-10T12:19:36.219Z,523
2022-11-10T12:24:36.200Z,361
2022-11-10T12:29:36.193Z,142
2022-11-10T12:34:36.185Z,237
2022-11-10T12:39:36.215Z,364
2022-11-10T12:44:36.191Z,224
2022-11-10T12:49:36.171Z,164
2022-11-10T12:54:36.194Z,478
2022-11-10T12:59:36.224Z,294
2022-11-10T13:04:36.221Z,232
2022-11-10T13:09:36.176Z,248
2022-11-10T13:14:36.197Z,397
2022-11-10T13:19:36.211Z,428
2022-11-10T13:24:36.255Z,340
2022-11-10T13:29:36.163Z,354
2022-11-10T13:34:36.192Z,358
2022-11-10T13:39:36.203Z,287
2022-11-10T13:44:36.208Z,309
2022-11-10T13:49:36.210Z,129
2022-11-10T13:54:36.169Z,219
2022-11-10T13:59:36.199Z,159
2022-11-10T14:04:36.221Z,135
2022-11-10T14:09:36.162Z,86
2022-11-10T14:14:36.170Z,63
2022-11-10T14:19:36.207Z,68
2022-11-10T14:24:36.176Z,69
2022-11-10T14:29:36.174Z,95
2022-11-10T14:34:36.198Z,58
2022-11-10T14:39:36.303Z,32
2022-11-10T14:44:36.173Z,36
2022-11-10T14:49:36.174Z,28
2022-11-10T14:54:36.178Z,26
2022-11-10T14:59:36.305Z,19
2022-11-10T15:04:36.174Z,21
2022-11-10T15:09:36.170Z,15
2022-11-10T15:14:36.186Z,12
2022-11-10T15:19:36.297Z,15
2022-11-10T15:24:36.170Z,9
2022-11-10T15:29:36.172Z,2
2022-11-10T15:34:36.202Z,1
2022-11-10T15:39:36.318Z,0
2022-11-10T15:44:36.155Z,0
2022-11-10T15:49:36.173Z,0
2022-11-10T15:54:36.156Z,0
2022-11-10T15:59:36.317Z,0
2022-11-10T16:04:36.169Z,0
2022-11-10T16:09:36.165Z,0
2022-11-10T16:14:36.193Z,0
2022-11-10T16:19:36.300Z,0
2022-11-10T16:24:36.185Z,0
2022-11-10T16:29:36.410Z,0
2022-11-10T16:34:36.401Z,0
2022-11-10T16:39:36.558Z,0
2022-11-10T16:44:39.971Z,0
2022-11-10T16:49:36.397Z,0
2022-11-10T16:54:36.393Z,0
2022-11-10T16:59:36.461Z,0
2022-11-10T17:04:38.896Z,0
2022-11-10T17:09:36.378Z,0
2022-11-10T17:14:36.373Z,0
2022-11-10T17:19:36.538Z,0
2022-11-10T17:24:36.394Z,0
2022-11-10T17:29:36.378Z,0
2022-11-10T17:34:36.400Z,0
2022-11-10T17:39:36.535Z,0
2022-11-10T17:44:36.417Z,0
2022-11-10T17:49:36.410Z,0
2022-11-10T17:54:36.393Z,0
2022-11-10T17:59:36.535Z,0
2022-11-10T18:04:36.421Z,0
2022-11-10T18:09:36.413Z,0
2022-11-10T18:14:36.411Z,0
2022-11-10T18:19:36.495Z,0
2022-11-10T18:24:36.394Z,0
2022-11-10T18:29:36.375Z,0
2022-11-10T18:34:36.382Z,0
2022-11-10T18:39:36.482Z,0
2022-11-10T18:44:36.374Z,0
2022-11-10T18:49:36.359Z,0
2022-11-10T18:54:36.398Z,0
2022-11-10T18:59:36.467Z,0
2022-11-10T19:04:36.365Z,0
2022-11-10T19:09:36.394Z,0
2022-11-10T19:14:36.336Z,0
2022-11-10T19:19:36.482Z,0
2022-11-10T19:24:47.883Z,0
2022-11-10T19:29:36.363Z,0
2022-11-10T19:34:36.360Z,0
2022-11-10T19:39:36.483Z,0
2022-11-10T19:44:36.356Z,0
2022-11-10T19:49:36.372Z,0
2022-11-10T19:54:36.371Z,0
2022-11-10T19:59:36.512Z,0
2022-11-10T20:04:36.385Z,0
2022-11-10T20:09:36.370Z,0
2022-11-10T20:14:36.337Z,0
2022-11-10T20:19:40.426Z,0
2022-11-10T20:24:36.614Z,0
2022-11-10T20:29:36.611Z,0
2022-11-10T20:34:36.581Z,0
2022-11-10T20:39:36.720Z,0
2022-11-10T20:44:36.598Z,0
2022-11-10T20:49:36.579Z,0
2022-11-10T20:54:36.862Z,0
2022-11-10T20:59:36.946Z,0
2022-11-10T21:04:41.833Z,0
2022-11-10T21:09:36.831Z,0
2022-11-10T21:14:36.829Z,0
2022-11-10T21:19:36.966Z,0
2022-11-10T21:24:36.846Z,0
2022-11-10T21:29:36.845Z,0
2022-11-10T21:34:36.849Z,0
2022-11-10T21:39:36.975Z,0
2022-11-10T21:44:36.816Z,0
2022-11-10T21:49:36.751Z,0
2022-11-10T21:54:36.845Z,0
2022-11-10T21:59:36.963Z,0
2022-11-10T22:04:36.830Z,0
2022-11-10T22:09:36.832Z,0
2022-11-10T22:14:36.817Z,0
2022-11-10T22:19:36.936Z,0
2022-11-10T22:24:36.802Z,0
2022-11-10T22:29:36.822Z,0
2022-11-10T22:34:36.820Z,0
2022-11-10T22:39:36.957Z,0
2022-11-10T22:44:36.820Z,0
2022-11-10T22:49:36.802Z,0
2022-11-10T22:54:36.808Z,0
2022-11-10T22:59:36.942Z,0
2022-11-10T23:04:36.816Z,0
2022-11-10T23:09:36.794Z,0
2022-11-10T23:14:36.831Z,0
2022-11-10T23:19:36.923Z,0
2022-11-10T23:24:36.778Z,0
2022-11-10T23:29:36.790Z,0
2022-11-10T23:34:36.820Z,0
2022-11-10T23:39:36.902Z,0
2022-11-10T23:44:36.809Z,0
2022-11-10T23:49:36.779Z,0
2022-11-10T23:54:36.780Z,0
2022-11-10T23:59:36.935Z,0
